sensor_id;sensor_type;location;lat;lon;timestamp;P1;durP1;ratioP1;P2;durP2;ratioP2
28822;SDS011;15961;54.678;9.110;2023-04-03T00:00:23;0.20;;;0.20;;
28822;SDS011;15961;54.678;9.110;2023-04-03T00:03:12;0.20;;;0.20;;
28822;SDS011;15961;54.678;9.110;2023-04-03T00:05:40;0.20;;;0.20;;
28822;SDS011;15961;54.678;9.110;2023-04-03T00:10:41;0.30;;;0.30;;
28822;SDS011;15961;54.678;9.110;2023-04-03T00:13:07;0.20;;;0.20;;
28822;SDS011;15961;54.678;9.110;2023-04-03T00:15:33;0.20;;;0.20;;
28822;SDS011;15961;54.678;9.110;2023-04-03T00:17:59;0.28;;;0.28;;
28822;SDS011;15961;54.678;9.110;2023-04-03T00:20:25;0.20;;;0.20;;
28822;SDS011;15961;54.678;9.110;2023-04-03T00:22:59;0.20;;;0.20;;
28822;SDS011;15961;54.678;9.110;2023-04-03T00:25:25;0.20;;;0.20;;
28822;SDS011;15961;54.678;9.110;2023-04-03T00:27:51;0.20;;;0.20;;
28822;SDS011;15961;54.678;9.110;2023-04-03T00:30:17;0.20;;;0.20;;
28822;SDS011;15961;54.678;9.110;2023-04-03T00:32:45;0.20;;;0.20;;
28822;SDS011;15961;54.678;9.110;2023-04-03T00:35:13;0.20;;;0.20;;
28822;SDS011;15961;54.678;9.110;2023-04-03T00:37:40;0.20;;;0.20;;
28822;SDS011;15961;54.678;9.110;2023-04-03T00:40:10;0.30;;;0.30;;
28822;SDS011;15961;54.678;9.110;2023-04-03T00:42:37;0.30;;;0.30;;
28822;SDS011;15961;54.678;9.110;2023-04-03T00:47:29;0.20;;;0.20;;
28822;SDS011;15961;54.678;9.110;2023-04-03T00:50:01;0.20;;;0.20;;
28822;SDS011;15961;54.678;9.110;2023-04-03T00:52:29;0.30;;;0.30;;
28822;SDS011;15961;54.678;9.110;2023-04-03T00:55:00;0.20;;;0.20;;
28822;SDS011;15961;54.678;9.110;2023-04-03T00:57:29;0.30;;;0.30;;
28822;SDS011;15961;54.678;9.110;2023-04-03T00:59:57;0.30;;;0.30;;
28822;SDS011;15961;54.678;9.110;2023-04-03T01:02:26;0.30;;;0.30;;
28822;SDS011;15961;54.678;9.110;2023-04-03T01:04:52;0.20;;;0.20;;
28822;SDS011;15961;54.678;9.110;2023-04-03T01:07:18;0.20;;;0.20;;
28822;SDS011;15961;54.678;9.110;2023-04-03T01:09:55;0.30;;;0.30;;
28822;SDS011;15961;54.678;9.110;2023-04-03T01:12:27;0.20;;;0.20;;
28822;SDS011;15961;54.678;9.110;2023-04-03T01:15:04;0.10;;;0.10;;
28822;SDS011;15961;54.678;9.110;2023-04-03T01:17:43;0.28;;;0.28;;
28822;SDS011;15961;54.678;9.110;2023-04-03T01:25:51;0.13;;;0.13;;
28822;SDS011;15961;54.678;9.110;2023-04-03T01:28:20;0.20;;;0.20;;
28822;SDS011;15961;54.678;9.110;2023-04-03T01:33:40;0.30;;;0.30;;
28822;SDS011;15961;54.678;9.110;2023-04-03T01:36:07;0.20;;;0.20;;
28822;SDS011;15961;54.678;9.110;2023-04-03T01:38:33;0.20;;;0.20;;
28822;SDS011;15961;54.678;9.110;2023-04-03T01:40:58;0.25;;;0.25;;
28822;SDS011;15961;54.678;9.110;2023-04-03T01:43:24;0.20;;;0.20;;
28822;SDS011;15961;54.678;9.110;2023-04-03T01:45:50;0.22;;;0.22;;
28822;SDS011;15961;54.678;9.110;2023-04-03T01:48:17;0.22;;;0.22;;
28822;SDS011;15961;54.678;9.110;2023-04-03T01:50:42;0.20;;;0.20;;
28822;SDS011;15961;54.678;9.110;2023-04-03T01:53:08;0.28;;;0.28;;
28822;SDS011;15961;54.678;9.110;2023-04-03T01:55:36;0.20;;;0.20;;
28822;SDS011;15961;54.678;9.110;2023-04-03T01:58:09;0.20;;;0.20;;
28822;SDS011;15961;54.678;9.110;2023-04-03T02:00:35;0.20;;;0.20;;
28822;SDS011;15961;54.678;9.110;2023-04-03T02:03:00;0.30;;;0.30;;
28822;SDS011;15961;54.678;9.110;2023-04-03T02:05:26;0.30;;;0.30;;
28822;SDS011;15961;54.678;9.110;2023-04-03T02:08:01;0.17;;;0.17;;
28822;SDS011;15961;54.678;9.110;2023-04-03T02:13:15;0.20;;;0.20;;
28822;SDS011;15961;54.678;9.110;2023-04-03T02:15:51;0.20;;;0.20;;
28822;SDS011;15961;54.678;9.110;2023-04-03T02:18:29;0.20;;;0.20;;
28822;SDS011;15961;54.678;9.110;2023-04-03T02:21:15;0.20;;;0.20;;
28822;SDS011;15961;54.678;9.110;2023-04-03T02:23:44;0.20;;;0.20;;
28822;SDS011;15961;54.678;9.110;2023-04-03T02:26:10;0.28;;;0.28;;
28822;SDS011;15961;54.678;9.110;2023-04-03T02:28:41;0.20;;;0.20;;
28822;SDS011;15961;54.678;9.110;2023-04-03T02:31:08;0.30;;;0.30;;
28822;SDS011;15961;54.678;9.110;2023-04-03T02:33:35;0.20;;;0.20;;
28822;SDS011;15961;54.678;9.110;2023-04-03T02:36:02;0.22;;;0.22;;
28822;SDS011;15961;54.678;9.110;2023-04-03T02:38:31;0.20;;;0.20;;
28822;SDS011;15961;54.678;9.110;2023-04-03T02:41:01;0.20;;;0.20;;
28822;SDS011;15961;54.678;9.110;2023-04-03T02:43:30;0.25;;;0.25;;
28822;SDS011;15961;54.678;9.110;2023-04-03T02:45:56;0.20;;;0.20;;
28822;SDS011;15961;54.678;9.110;2023-04-03T02:48:30;0.20;;;0.20;;
28822;SDS011;15961;54.678;9.110;2023-04-03T02:50:56;0.20;;;0.20;;
28822;SDS011;15961;54.678;9.110;2023-04-03T02:53:22;0.30;;;0.30;;
28822;SDS011;15961;54.678;9.110;2023-04-03T02:55:48;0.20;;;0.20;;
28822;SDS011;15961;54.678;9.110;2023-04-03T02:58:13;0.30;;;0.30;;
28822;SDS011;15961;54.678;9.110;2023-04-03T03:00:39;0.20;;;0.20;;
28822;SDS011;15961;54.678;9.110;2023-04-03T03:03:08;0.20;;;0.20;;
28822;SDS011;15961;54.678;9.110;2023-04-03T03:05:38;0.20;;;0.20;;
28822;SDS011;15961;54.678;9.110;2023-04-03T03:08:13;0.20;;;0.20;;
28822;SDS011;15961;54.678;9.110;2023-04-03T03:10:48;0.20;;;0.20;;
28822;SDS011;15961;54.678;9.110;2023-04-03T03:13:16;0.20;;;0.20;;
28822;SDS011;15961;54.678;9.110;2023-04-03T03:15:42;0.20;;;0.20;;
28822;SDS011;15961;54.678;9.110;2023-04-03T03:18:07;0.20;;;0.20;;
28822;SDS011;15961;54.678;9.110;2023-04-03T03:20:36;0.28;;;0.28;;
28822;SDS011;15961;54.678;9.110;2023-04-03T03:23:03;0.20;;;0.20;;
28822;SDS011;15961;54.678;9.110;2023-04-03T03:25:31;0.25;;;0.25;;
28822;SDS011;15961;54.678;9.110;2023-04-03T03:27:57;0.20;;;0.20;;
28822;SDS011;15961;54.678;9.110;2023-04-03T03:30:22;0.30;;;0.30;;
28822;SDS011;15961;54.678;9.110;2023-04-03T03:32:48;0.20;;;0.20;;
28822;SDS011;15961;54.678;9.110;2023-04-03T03:35:14;0.20;;;0.20;;
28822;SDS011;15961;54.678;9.110;2023-04-03T03:37:39;0.10;;;0.10;;
28822;SDS011;15961;54.678;9.110;2023-04-03T03:40:05;0.20;;;0.20;;
28822;SDS011;15961;54.678;9.110;2023-04-03T03:42:31;0.20;;;0.20;;
28822;SDS011;15961;54.678;9.110;2023-04-03T03:44:59;0.20;;;0.20;;
28822;SDS011;15961;54.678;9.110;2023-04-03T03:47:28;0.20;;;0.20;;
28822;SDS011;15961;54.678;9.110;2023-04-03T03:49:53;0.20;;;0.20;;
28822;SDS011;15961;54.678;9.110;2023-04-03T03:52:19;0.22;;;0.22;;
28822;SDS011;15961;54.678;9.110;2023-04-03T03:54:44;0.38;;;0.38;;
28822;SDS011;15961;54.678;9.110;2023-04-03T03:57:10;0.30;;;0.30;;
28822;SDS011;15961;54.678;9.110;2023-04-03T03:59:35;0.20;;;0.20;;
28822;SDS011;15961;54.678;9.110;2023-04-03T04:02:01;0.20;;;0.20;;
28822;SDS011;15961;54.678;9.110;2023-04-03T04:04:27;0.20;;;0.20;;
28822;SDS011;15961;54.678;9.110;2023-04-03T04:06:52;0.20;;;0.20;;
28822;SDS011;15961;54.678;9.110;2023-04-03T04:09:18;0.20;;;0.20;;
28822;SDS011;15961;54.678;9.110;2023-04-03T04:11:43;0.20;;;0.20;;
28822;SDS011;15961;54.678;9.110;2023-04-03T04:14:09;0.20;;;0.20;;
28822;SDS011;15961;54.678;9.110;2023-04-03T04:16:37;0.30;;;0.30;;
28822;SDS011;15961;54.678;9.110;2023-04-03T04:19:03;0.20;;;0.20;;
28822;SDS011;15961;54.678;9.110;2023-04-03T04:21:28;0.20;;;0.20;;
28822;SDS011;15961;54.678;9.110;2023-04-03T04:23:54;0.20;;;0.20;;
28822;SDS011;15961;54.678;9.110;2023-04-03T04:26:19;0.30;;;0.30;;
28822;SDS011;15961;54.678;9.110;2023-04-03T04:28:48;0.20;;;0.20;;
28822;SDS011;15961;54.678;9.110;2023-04-03T04:31:16;0.28;;;0.28;;
28822;SDS011;15961;54.678;9.110;2023-04-03T04:33:41;0.30;;;0.30;;
28822;SDS011;15961;54.678;9.110;2023-04-03T04:36:07;0.30;;;0.30;;
28822;SDS011;15961;54.678;9.110;2023-04-03T04:38:35;0.20;;;0.20;;
28822;SDS011;15961;54.678;9.110;2023-04-03T04:41:03;0.20;;;0.20;;
28822;SDS011;15961;54.678;9.110;2023-04-03T04:43:32;0.20;;;0.20;;
28822;SDS011;15961;54.678;9.110;2023-04-03T04:46:01;0.20;;;0.20;;
28822;SDS011;15961;54.678;9.110;2023-04-03T04:48:29;0.30;;;0.30;;
28822;SDS011;15961;54.678;9.110;2023-04-03T04:50:55;0.20;;;0.20;;
28822;SDS011;15961;54.678;9.110;2023-04-03T04:53:20;0.20;;;0.20;;
28822;SDS011;15961;54.678;9.110;2023-04-03T04:55:46;0.20;;;0.20;;
28822;SDS011;15961;54.678;9.110;2023-04-03T04:58:11;0.20;;;0.20;;
28822;SDS011;15961;54.678;9.110;2023-04-03T05:00:37;0.25;;;0.25;;
28822;SDS011;15961;54.678;9.110;2023-04-03T05:03:05;0.30;;;0.30;;
28822;SDS011;15961;54.678;9.110;2023-04-03T05:05:31;0.20;;;0.20;;
28822;SDS011;15961;54.678;9.110;2023-04-03T05:07:56;0.30;;;0.30;;
28822;SDS011;15961;54.678;9.110;2023-04-03T05:10:22;0.30;;;0.30;;
28822;SDS011;15961;54.678;9.110;2023-04-03T05:12:47;0.20;;;0.20;;
28822;SDS011;15961;54.678;9.110;2023-04-03T05:15:13;0.20;;;0.20;;
28822;SDS011;15961;54.678;9.110;2023-04-03T05:17:39;0.20;;;0.20;;
28822;SDS011;15961;54.678;9.110;2023-04-03T05:20:04;0.20;;;0.20;;
28822;SDS011;15961;54.678;9.110;2023-04-03T05:22:31;0.20;;;0.20;;
28822;SDS011;15961;54.678;9.110;2023-04-03T05:24:56;0.30;;;0.30;;
28822;SDS011;15961;54.678;9.110;2023-04-03T05:27:22;0.28;;;0.28;;
28822;SDS011;15961;54.678;9.110;2023-04-03T05:29:53;0.20;;;0.20;;
28822;SDS011;15961;54.678;9.110;2023-04-03T05:32:19;0.30;;;0.30;;
28822;SDS011;15961;54.678;9.110;2023-04-03T05:34:45;0.25;;;0.25;;
28822;SDS011;15961;54.678;9.110;2023-04-03T05:37:11;0.20;;;0.20;;
28822;SDS011;15961;54.678;9.110;2023-04-03T05:39:45;0.25;;;0.25;;
28822;SDS011;15961;54.678;9.110;2023-04-03T05:42:20;0.20;;;0.20;;
28822;SDS011;15961;54.678;9.110;2023-04-03T05:44:53;0.30;;;0.30;;
28822;SDS011;15961;54.678;9.110;2023-04-03T05:47:18;0.30;;;0.30;;
28822;SDS011;15961;54.678;9.110;2023-04-03T05:49:44;0.30;;;0.30;;
28822;SDS011;15961;54.678;9.110;2023-04-03T05:52:29;0.20;;;0.20;;
28822;SDS011;15961;54.678;9.110;2023-04-03T05:54:56;0.20;;;0.20;;
28822;SDS011;15961;54.678;9.110;2023-04-03T05:57:22;0.20;;;0.20;;
28822;SDS011;15961;54.678;9.110;2023-04-03T05:59:51;0.20;;;0.20;;
28822;SDS011;15961;54.678;9.110;2023-04-03T06:02:18;0.20;;;0.20;;
28822;SDS011;15961;54.678;9.110;2023-04-03T06:04:46;0.20;;;0.20;;
28822;SDS011;15961;54.678;9.110;2023-04-03T06:07:13;0.20;;;0.20;;
28822;SDS011;15961;54.678;9.110;2023-04-03T06:09:47;0.20;;;0.20;;
28822;SDS011;15961;54.678;9.110;2023-04-03T06:12:14;0.17;;;0.17;;
28822;SDS011;15961;54.678;9.110;2023-04-03T06:14:47;0.20;;;0.20;;
28822;SDS011;15961;54.678;9.110;2023-04-03T06:17:23;0.22;;;0.22;;
28822;SDS011;15961;54.678;9.110;2023-04-03T06:20:03;0.30;;;0.30;;
28822;SDS011;15961;54.678;9.110;2023-04-03T06:22:32;0.20;;;0.20;;
28822;SDS011;15961;54.678;9.110;2023-04-03T06:25:09;0.20;;;0.20;;
28822;SDS011;15961;54.678;9.110;2023-04-03T06:27:37;0.20;;;0.20;;
28822;SDS011;15961;54.678;9.110;2023-04-03T06:30:03;0.20;;;0.20;;
28822;SDS011;15961;54.678;9.110;2023-04-03T06:32:30;0.20;;;0.20;;
28822;SDS011;15961;54.678;9.110;2023-04-03T06:34:56;0.20;;;0.20;;
28822;SDS011;15961;54.678;9.110;2023-04-03T06:37:24;0.22;;;0.22;;
28822;SDS011;15961;54.678;9.110;2023-04-03T06:39:53;0.20;;;0.20;;
28822;SDS011;15961;54.678;9.110;2023-04-03T06:42:19;0.20;;;0.20;;
28822;SDS011;15961;54.678;9.110;2023-04-03T06:44:45;0.20;;;0.20;;
28822;SDS011;15961;54.678;9.110;2023-04-03T06:47:12;0.20;;;0.20;;
28822;SDS011;15961;54.678;9.110;2023-04-03T06:49:42;0.20;;;0.20;;
28822;SDS011;15961;54.678;9.110;2023-04-03T06:52:28;0.20;;;0.20;;
28822;SDS011;15961;54.678;9.110;2023-04-03T06:54:59;0.30;;;0.30;;
28822;SDS011;15961;54.678;9.110;2023-04-03T06:57:25;0.30;;;0.30;;
28822;SDS011;15961;54.678;9.110;2023-04-03T06:59:51;0.20;;;0.20;;
28822;SDS011;15961;54.678;9.110;2023-04-03T07:02:17;0.20;;;0.20;;
28822;SDS011;15961;54.678;9.110;2023-04-03T07:04:42;0.20;;;0.20;;
28822;SDS011;15961;54.678;9.110;2023-04-03T07:07:11;0.30;;;0.30;;
28822;SDS011;15961;54.678;9.110;2023-04-03T07:09:55;0.20;;;0.20;;
28822;SDS011;15961;54.678;9.110;2023-04-03T07:12:31;0.20;;;0.20;;
28822;SDS011;15961;54.678;9.110;2023-04-03T07:15:15;0.20;;;0.20;;
28822;SDS011;15961;54.678;9.110;2023-04-03T07:18:04;0.20;;;0.20;;
28822;SDS011;15961;54.678;9.110;2023-04-03T07:20:33;0.13;;;0.13;;
28822;SDS011;15961;54.678;9.110;2023-04-03T07:23:21;0.28;;;0.28;;
28822;SDS011;15961;54.678;9.110;2023-04-03T07:25:45;0.20;;;0.20;;
28822;SDS011;15961;54.678;9.110;2023-04-03T07:28:24;0.17;;;0.17;;
28822;SDS011;15961;54.678;9.110;2023-04-03T07:30:53;0.20;;;0.20;;
28822;SDS011;15961;54.678;9.110;2023-04-03T07:33:24;0.20;;;0.20;;
28822;SDS011;15961;54.678;9.110;2023-04-03T07:35:53;0.30;;;0.30;;
28822;SDS011;15961;54.678;9.110;2023-04-03T07:38:18;0.20;;;0.20;;
28822;SDS011;15961;54.678;9.110;2023-04-03T07:40:48;0.25;;;0.25;;
28822;SDS011;15961;54.678;9.110;2023-04-03T07:43:19;0.30;;;0.30;;
28822;SDS011;15961;54.678;9.110;2023-04-03T07:45:45;0.20;;;0.20;;
28822;SDS011;15961;54.678;9.110;2023-04-03T07:48:14;0.20;;;0.20;;
28822;SDS011;15961;54.678;9.110;2023-04-03T07:50:42;0.20;;;0.20;;
28822;SDS011;15961;54.678;9.110;2023-04-03T07:53:08;0.20;;;0.20;;
28822;SDS011;15961;54.678;9.110;2023-04-03T07:55:34;0.20;;;0.20;;
28822;SDS011;15961;54.678;9.110;2023-04-03T07:58:02;0.15;;;0.15;;
28822;SDS011;15961;54.678;9.110;2023-04-03T08:00:31;0.20;;;0.20;;
28822;SDS011;15961;54.678;9.110;2023-04-03T08:02:56;0.20;;;0.20;;
28822;SDS011;15961;54.678;9.110;2023-04-03T08:05:22;0.20;;;0.20;;
28822;SDS011;15961;54.678;9.110;2023-04-03T08:07:47;0.20;;;0.20;;
28822;SDS011;15961;54.678;9.110;2023-04-03T08:10:13;0.20;;;0.20;;
28822;SDS011;15961;54.678;9.110;2023-04-03T08:12:48;0.10;;;0.10;;
28822;SDS011;15961;54.678;9.110;2023-04-03T08:15:13;0.30;;;0.30;;
28822;SDS011;15961;54.678;9.110;2023-04-03T08:17:39;0.20;;;0.20;;
28822;SDS011;15961;54.678;9.110;2023-04-03T08:20:05;0.20;;;0.20;;
28822;SDS011;15961;54.678;9.110;2023-04-03T08:22:32;0.22;;;0.22;;
28822;SDS011;15961;54.678;9.110;2023-04-03T08:25:00;0.20;;;0.20;;
28822;SDS011;15961;54.678;9.110;2023-04-03T08:27:26;0.20;;;0.20;;
28822;SDS011;15961;54.678;9.110;2023-04-03T08:29:52;0.20;;;0.20;;
28822;SDS011;15961;54.678;9.110;2023-04-03T08:32:20;0.20;;;0.20;;
28822;SDS011;15961;54.678;9.110;2023-04-03T08:34:55;0.20;;;0.20;;
28822;SDS011;15961;54.678;9.110;2023-04-03T08:37:21;0.20;;;0.20;;
28822;SDS011;15961;54.678;9.110;2023-04-03T08:39:46;0.20;;;0.20;;
28822;SDS011;15961;54.678;9.110;2023-04-03T08:42:19;0.10;;;0.10;;
28822;SDS011;15961;54.678;9.110;2023-04-03T08:44:47;0.25;;;0.25;;
28822;SDS011;15961;54.678;9.110;2023-04-03T08:47:38;0.22;;;0.22;;
28822;SDS011;15961;54.678;9.110;2023-04-03T08:50:17;0.13;;;0.13;;
28822;SDS011;15961;54.678;9.110;2023-04-03T08:52:50;0.20;;;0.20;;
28822;SDS011;15961;54.678;9.110;2023-04-03T08:55:29;0.20;;;0.20;;
28822;SDS011;15961;54.678;9.110;2023-04-03T09:00:24;0.20;;;0.20;;
28822;SDS011;15961;54.678;9.110;2023-04-03T09:02:53;0.20;;;0.20;;
28822;SDS011;15961;54.678;9.110;2023-04-03T09:08:12;0.30;;;0.30;;
28822;SDS011;15961;54.678;9.110;2023-04-03T09:10:40;0.30;;;0.30;;
28822;SDS011;15961;54.678;9.110;2023-04-03T09:13:21;0.22;;;0.22;;
28822;SDS011;15961;54.678;9.110;2023-04-03T09:15:56;0.10;;;0.10;;
28822;SDS011;15961;54.678;9.110;2023-04-03T09:18:30;0.20;;;0.20;;
28822;SDS011;15961;54.678;9.110;2023-04-03T09:23:53;0.30;;;0.30;;
28822;SDS011;15961;54.678;9.110;2023-04-03T09:26:29;0.17;;;0.17;;
28822;SDS011;15961;54.678;9.110;2023-04-03T09:29:02;0.20;;;0.20;;
28822;SDS011;15961;54.678;9.110;2023-04-03T09:31:52;0.20;;;0.20;;
28822;SDS011;15961;54.678;9.110;2023-04-03T09:34:23;0.20;;;0.20;;
28822;SDS011;15961;54.678;9.110;2023-04-03T09:37:05;0.30;;;0.30;;
28822;SDS011;15961;54.678;9.110;2023-04-03T09:39:31;0.20;;;0.20;;
28822;SDS011;15961;54.678;9.110;2023-04-03T09:42:22;0.10;;;0.10;;
28822;SDS011;15961;54.678;9.110;2023-04-03T09:44:53;0.20;;;0.20;;
28822;SDS011;15961;54.678;9.110;2023-04-03T09:47:36;0.20;;;0.20;;
28822;SDS011;15961;54.678;9.110;2023-04-03T09:50:15;0.20;;;0.20;;
28822;SDS011;15961;54.678;9.110;2023-04-03T09:52:46;0.20;;;0.20;;
28822;SDS011;15961;54.678;9.110;2023-04-03T09:55:28;0.15;;;0.15;;
28822;SDS011;15961;54.678;9.110;2023-04-03T09:57:59;0.20;;;0.20;;
28822;SDS011;15961;54.678;9.110;2023-04-03T10:01:02;0.20;;;0.20;;
28822;SDS011;15961;54.678;9.110;2023-04-03T10:03:27;0.20;;;0.20;;
28822;SDS011;15961;54.678;9.110;2023-04-03T10:06:00;0.20;;;0.20;;
28822;SDS011;15961;54.678;9.110;2023-04-03T10:08:31;0.10;;;0.10;;
28822;SDS011;15961;54.678;9.110;2023-04-03T10:13:55;0.20;;;0.20;;
28822;SDS011;15961;54.678;9.110;2023-04-03T10:16:27;0.20;;;0.20;;
28822;SDS011;15961;54.678;9.110;2023-04-03T10:22:04;0.10;;;0.10;;
28822;SDS011;15961;54.678;9.110;2023-04-03T10:24:36;0.10;;;0.10;;
28822;SDS011;15961;54.678;9.110;2023-04-03T10:28:10;0.10;;;0.10;;
28822;SDS011;15961;54.678;9.110;2023-04-03T10:34:06;0.10;;;0.10;;
28822;SDS011;15961;54.678;9.110;2023-04-03T10:36:57;0.20;;;0.20;;
28822;SDS011;15961;54.678;9.110;2023-04-03T10:46:12;0.10;;;0.10;;
28822;SDS011;15961;54.678;9.110;2023-04-03T10:49:10;0.17;;;0.17;;
28822;SDS011;15961;54.678;9.110;2023-04-03T10:55:06;0.20;;;0.20;;
28822;SDS011;15961;54.678;9.110;2023-04-03T10:57:39;0.10;;;0.10;;
28822;SDS011;15961;54.678;9.110;2023-04-03T11:02:54;0.20;;;0.20;;
28822;SDS011;15961;54.678;9.110;2023-04-03T11:11:47;0.10;;;0.10;;
28822;SDS011;15961;54.678;9.110;2023-04-03T11:17:04;0.20;;;0.20;;
28822;SDS011;15961;54.678;9.110;2023-04-03T11:27:30;0.10;;;0.10;;
28822;SDS011;15961;54.678;9.110;2023-04-03T11:30:21;0.20;;;0.20;;
28822;SDS011;15961;54.678;9.110;2023-04-03T11:36:10;0.20;;;0.20;;
28822;SDS011;15961;54.678;9.110;2023-04-03T11:38:44;0.13;;;0.13;;
28822;SDS011;15961;54.678;9.110;2023-04-03T11:41:32;0.10;;;0.10;;
28822;SDS011;15961;54.678;9.110;2023-04-03T11:44:05;0.20;;;0.20;;
28822;SDS011;15961;54.678;9.110;2023-04-03T11:46:55;0.10;;;0.10;;
28822;SDS011;15961;54.678;9.110;2023-04-03T12:11:15;0.10;;;0.10;;
28822;SDS011;15961;54.678;9.110;2023-04-03T12:16:21;0.10;;;0.10;;
28822;SDS011;15961;54.678;9.110;2023-04-03T12:38:02;0.20;;;0.20;;
28822;SDS011;15961;54.678;9.110;2023-04-03T12:46:14;0.20;;;0.20;;
28822;SDS011;15961;54.678;9.110;2023-04-03T12:48:47;0.20;;;0.20;;
28822;SDS011;15961;54.678;9.110;2023-04-03T12:51:32;0.10;;;0.10;;
28822;SDS011;15961;54.678;9.110;2023-04-03T12:54:03;0.20;;;0.20;;
28822;SDS011;15961;54.678;9.110;2023-04-03T12:56:38;0.20;;;0.20;;
28822;SDS011;15961;54.678;9.110;2023-04-03T12:59:18;0.20;;;0.20;;
28822;SDS011;15961;54.678;9.110;2023-04-03T13:01:55;0.13;;;0.13;;
28822;SDS011;15961;54.678;9.110;2023-04-03T13:04:28;0.10;;;0.10;;
28822;SDS011;15961;54.678;9.110;2023-04-03T13:06:56;0.10;;;0.10;;
28822;SDS011;15961;54.678;9.110;2023-04-03T13:09:41;0.20;;;0.20;;
28822;SDS011;15961;54.678;9.110;2023-04-03T13:12:10;0.20;;;0.20;;
28822;SDS011;15961;54.678;9.110;2023-04-03T13:14:53;0.20;;;0.20;;
28822;SDS011;15961;54.678;9.110;2023-04-03T13:17:32;0.20;;;0.20;;
28822;SDS011;15961;54.678;9.110;2023-04-03T13:20:16;0.20;;;0.20;;
28822;SDS011;15961;54.678;9.110;2023-04-03T13:25:31;0.10;;;0.10;;
28822;SDS011;15961;54.678;9.110;2023-04-03T13:28:01;0.20;;;0.20;;
28822;SDS011;15961;54.678;9.110;2023-04-03T13:31:18;0.10;;;0.10;;
28822;SDS011;15961;54.678;9.110;2023-04-03T13:33:23;0.10;;;0.10;;
28822;SDS011;15961;54.678;9.110;2023-04-03T13:35:56;0.20;;;0.20;;
28822;SDS011;15961;54.678;9.110;2023-04-03T13:38:30;0.20;;;0.20;;
28822;SDS011;15961;54.678;9.110;2023-04-03T13:41:03;0.10;;;0.10;;
28822;SDS011;15961;54.678;9.110;2023-04-03T13:43:49;0.10;;;0.10;;
28822;SDS011;15961;54.678;9.110;2023-04-03T13:46:26;0.10;;;0.10;;
28822;SDS011;15961;54.678;9.110;2023-04-03T13:48:56;0.10;;;0.10;;
28822;SDS011;15961;54.678;9.110;2023-04-03T13:51:41;0.10;;;0.10;;
28822;SDS011;15961;54.678;9.110;2023-04-03T13:54:18;0.10;;;0.10;;
28822;SDS011;15961;54.678;9.110;2023-04-03T13:56:58;0.10;;;0.10;;
28822;SDS011;15961;54.678;9.110;2023-04-03T13:59:33;0.10;;;0.10;;
28822;SDS011;15961;54.678;9.110;2023-04-03T14:02:20;0.10;;;0.10;;
28822;SDS011;15961;54.678;9.110;2023-04-03T14:04:55;0.10;;;0.10;;
28822;SDS011;15961;54.678;9.110;2023-04-03T14:07:25;0.10;;;0.10;;
28822;SDS011;15961;54.678;9.110;2023-04-03T14:10:05;0.10;;;0.10;;
28822;SDS011;15961;54.678;9.110;2023-04-03T14:12:33;0.10;;;0.10;;
28822;SDS011;15961;54.678;9.110;2023-04-03T14:18:01;0.10;;;0.10;;
28822;SDS011;15961;54.678;9.110;2023-04-03T14:20:35;0.00;;;0.00;;
28822;SDS011;15961;54.678;9.110;2023-04-03T14:23:01;0.10;;;0.10;;
28822;SDS011;15961;54.678;9.110;2023-04-03T14:25:59;0.10;;;0.10;;
28822;SDS011;15961;54.678;9.110;2023-04-03T14:28:25;0.00;;;0.00;;
28822;SDS011;15961;54.678;9.110;2023-04-03T14:31:02;0.10;;;0.10;;
28822;SDS011;15961;54.678;9.110;2023-04-03T14:33:34;0.03;;;0.03;;
28822;SDS011;15961;54.678;9.110;2023-04-03T14:36:17;0.10;;;0.10;;
28822;SDS011;15961;54.678;9.110;2023-04-03T14:38:46;0.10;;;0.10;;
28822;SDS011;15961;54.678;9.110;2023-04-03T14:41:13;0.05;;;0.05;;
28822;SDS011;15961;54.678;9.110;2023-04-03T14:43:44;0.05;;;0.05;;
28822;SDS011;15961;54.678;9.110;2023-04-03T14:46:16;0.10;;;0.10;;
28822;SDS011;15961;54.678;9.110;2023-04-03T14:48:44;0.08;;;0.08;;
28822;SDS011;15961;54.678;9.110;2023-04-03T14:51:11;0.10;;;0.10;;
28822;SDS011;15961;54.678;9.110;2023-04-03T14:53:38;0.00;;;0.00;;
28822;SDS011;15961;54.678;9.110;2023-04-03T14:56:11;0.00;;;0.00;;
28822;SDS011;15961;54.678;9.110;2023-04-03T14:59:02;0.00;;;0.00;;
28822;SDS011;15961;54.678;9.110;2023-04-03T15:01:36;0.10;;;0.10;;
28822;SDS011;15961;54.678;9.110;2023-04-03T15:04:14;0.10;;;0.10;;
28822;SDS011;15961;54.678;9.110;2023-04-03T15:06:41;0.00;;;0.00;;
28822;SDS011;15961;54.678;9.110;2023-04-03T15:09:18;0.00;;;0.00;;
28822;SDS011;15961;54.678;9.110;2023-04-03T15:11:48;0.00;;;0.00;;
28822;SDS011;15961;54.678;9.110;2023-04-03T15:14:18;0.00;;;0.00;;
28822;SDS011;15961;54.678;9.110;2023-04-03T15:16:43;0.10;;;0.10;;
28822;SDS011;15961;54.678;9.110;2023-04-03T15:19:12;0.08;;;0.08;;
28822;SDS011;15961;54.678;9.110;2023-04-03T15:21:38;0.00;;;0.00;;
28822;SDS011;15961;54.678;9.110;2023-04-03T15:24:06;0.03;;;0.03;;
28822;SDS011;15961;54.678;9.110;2023-04-03T15:26:34;0.10;;;0.10;;
28822;SDS011;15961;54.678;9.110;2023-04-03T15:28:59;0.00;;;0.00;;
28822;SDS011;15961;54.678;9.110;2023-04-03T15:31:25;0.00;;;0.00;;
28822;SDS011;15961;54.678;9.110;2023-04-03T15:33:52;0.10;;;0.10;;
28822;SDS011;15961;54.678;9.110;2023-04-03T15:36:17;0.00;;;0.00;;
28822;SDS011;15961;54.678;9.110;2023-04-03T15:38:43;0.10;;;0.10;;
28822;SDS011;15961;54.678;9.110;2023-04-03T15:41:08;0.03;;;0.03;;
28822;SDS011;15961;54.678;9.110;2023-04-03T15:43:34;0.10;;;0.10;;
28822;SDS011;15961;54.678;9.110;2023-04-03T15:46:04;0.00;;;0.00;;
28822;SDS011;15961;54.678;9.110;2023-04-03T15:48:39;0.10;;;0.10;;
28822;SDS011;15961;54.678;9.110;2023-04-03T15:51:06;0.08;;;0.08;;
28822;SDS011;15961;54.678;9.110;2023-04-03T15:53:32;0.10;;;0.10;;
28822;SDS011;15961;54.678;9.110;2023-04-03T15:55:58;0.10;;;0.10;;
28822;SDS011;15961;54.678;9.110;2023-04-03T15:58:23;0.10;;;0.10;;
28822;SDS011;15961;54.678;9.110;2023-04-03T16:00:51;0.00;;;0.00;;
28822;SDS011;15961;54.678;9.110;2023-04-03T16:03:18;0.10;;;0.10;;
28822;SDS011;15961;54.678;9.110;2023-04-03T16:05:46;0.10;;;0.10;;
28822;SDS011;15961;54.678;9.110;2023-04-03T16:08:12;0.10;;;0.10;;
28822;SDS011;15961;54.678;9.110;2023-04-03T16:10:39;0.00;;;0.00;;
28822;SDS011;15961;54.678;9.110;2023-04-03T16:13:05;0.10;;;0.10;;
28822;SDS011;15961;54.678;9.110;2023-04-03T16:15:31;0.10;;;0.10;;
28822;SDS011;15961;54.678;9.110;2023-04-03T16:17:57;0.00;;;0.00;;
28822;SDS011;15961;54.678;9.110;2023-04-03T16:20:25;0.10;;;0.10;;
28822;SDS011;15961;54.678;9.110;2023-04-03T16:22:51;0.10;;;0.10;;
28822;SDS011;15961;54.678;9.110;2023-04-03T16:25:17;0.10;;;0.10;;
28822;SDS011;15961;54.678;9.110;2023-04-03T16:27:43;0.10;;;0.10;;
28822;SDS011;15961;54.678;9.110;2023-04-03T16:30:10;0.10;;;0.10;;
28822;SDS011;15961;54.678;9.110;2023-04-03T16:32:37;0.00;;;0.00;;
28822;SDS011;15961;54.678;9.110;2023-04-03T16:35:09;0.10;;;0.10;;
28822;SDS011;15961;54.678;9.110;2023-04-03T16:37:41;0.10;;;0.10;;
28822;SDS011;15961;54.678;9.110;2023-04-03T16:40:07;0.10;;;0.10;;
28822;SDS011;15961;54.678;9.110;2023-04-03T16:42:33;0.10;;;0.10;;
28822;SDS011;15961;54.678;9.110;2023-04-03T16:44:59;0.20;;;0.20;;
28822;SDS011;15961;54.678;9.110;2023-04-03T16:47:27;0.10;;;0.10;;
28822;SDS011;15961;54.678;9.110;2023-04-03T16:49:53;0.15;;;0.15;;
28822;SDS011;15961;54.678;9.110;2023-04-03T16:52:18;0.20;;;0.20;;
28822;SDS011;15961;54.678;9.110;2023-04-03T16:54:44;0.20;;;0.20;;
28822;SDS011;15961;54.678;9.110;2023-04-03T16:57:10;0.10;;;0.10;;
28822;SDS011;15961;54.678;9.110;2023-04-03T16:59:38;0.10;;;0.10;;
28822;SDS011;15961;54.678;9.110;2023-04-03T17:02:14;0.10;;;0.10;;
28822;SDS011;15961;54.678;9.110;2023-04-03T17:04:40;0.17;;;0.17;;
28822;SDS011;15961;54.678;9.110;2023-04-03T17:07:06;0.10;;;0.10;;
28822;SDS011;15961;54.678;9.110;2023-04-03T17:09:33;0.20;;;0.20;;